sensor_id;sensor_type;location;lat;lon;timestamp;temperature;humidity
7030;DHT22;3556;53.500;10.176;2023-07-28T00:00:44;16.20;99.90
7030;DHT22;3556;53.500;10.176;2023-07-28T00:03:10;16.20;99.90
7030;DHT22;3556;53.500;10.176;2023-07-28T00:05:36;16.20;99.90
7030;DHT22;3556;53.500;10.176;2023-07-28T00:08:02;16.20;99.90
7030;DHT22;3556;53.500;10.176;2023-07-28T00:10:28;16.20;99.90
7030;DHT22;3556;53.500;10.176;2023-07-28T00:12:53;16.20;99.90
7030;DHT22;3556;53.500;10.176;2023-07-28T00:15:19;16.20;99.90
7030;DHT22;3556;53.500;10.176;2023-07-28T00:17:44;16.20;99.90
7030;DHT22;3556;53.500;10.176;2023-07-28T00:20:11;16.20;99.90
7030;DHT22;3556;53.500;10.176;2023-07-28T00:22:36;16.20;99.90
7030;DHT22;3556;53.500;10.176;2023-07-28T00:25:02;16.20;99.90
7030;DHT22;3556;53.500;10.176;2023-07-28T00:27:28;16.20;99.90
7030;DHT22;3556;53.500;10.176;2023-07-28T00:29:53;16.30;99.90
7030;DHT22;3556;53.500;10.176;2023-07-28T00:32:19;16.30;99.90
7030;DHT22;3556;53.500;10.176;2023-07-28T00:34:45;16.30;99.90
7030;DHT22;3556;53.500;10.176;2023-07-28T00:37:10;16.20;99.90
7030;DHT22;3556;53.500;10.176;2023-07-28T00:39:36;16.30;99.90
7030;DHT22;3556;53.500;10.176;2023-07-28T00:42:01;16.20;99.90
7030;DHT22;3556;53.500;10.176;2023-07-28T00:44:27;16.20;99.90
7030;DHT22;3556;53.500;10.176;2023-07-28T00:46:53;16.20;99.90
7030;DHT22;3556;53.500;10.176;2023-07-28T00:49:18;16.20;99.90
7030;DHT22;3556;53.500;10.176;2023-07-28T00:51:44;16.30;99.90
7030;DHT22;3556;53.500;10.176;2023-07-28T00:54:11;16.30;99.90
7030;DHT22;3556;53.500;10.176;2023-07-28T00:56:37;16.20;99.90
7030;DHT22;3556;53.500;10.176;2023-07-28T00:59:03;16.20;99.90
7030;DHT22;3556;53.500;10.176;2023-07-28T01:01:29;16.30;99.90
7030;DHT22;3556;53.500;10.176;2023-07-28T01:03:54;16.30;99.90
7030;DHT22;3556;53.500;10.176;2023-07-28T01:09:16;16.30;99.90
7030;DHT22;3556;53.500;10.176;2023-07-28T01:12:07;16.30;99.90
7030;DHT22;3556;53.500;10.176;2023-07-28T01:14:33;16.20;99.90
7030;DHT22;3556;53.500;10.176;2023-07-28T01:16:58;16.20;99.90
7030;DHT22;3556;53.500;10.176;2023-07-28T01:19:24;16.20;99.90
7030;DHT22;3556;53.500;10.176;2023-07-28T01:27:50;16.30;99.90
7030;DHT22;3556;53.500;10.176;2023-07-28T01:30:16;16.30;99.90
7030;DHT22;3556;53.500;10.176;2023-07-28T01:32:42;16.20;99.90
7030;DHT22;3556;53.500;10.176;2023-07-28T01:35:08;16.30;99.90
7030;DHT22;3556;53.500;10.176;2023-07-28T01:37:34;16.30;99.90
7030;DHT22;3556;53.500;10.176;2023-07-28T01:39:59;16.20;99.90
7030;DHT22;3556;53.500;10.176;2023-07-28T01:42:25;16.20;99.90
7030;DHT22;3556;53.500;10.176;2023-07-28T01:44:50;16.30;99.90
7030;DHT22;3556;53.500;10.176;2023-07-28T01:47:16;16.30;99.90
7030;DHT22;3556;53.500;10.176;2023-07-28T01:49:41;16.30;99.90
7030;DHT22;3556;53.500;10.176;2023-07-28T01:52:07;16.20;99.90
7030;DHT22;3556;53.500;10.176;2023-07-28T01:54:33;16.20;99.90
7030;DHT22;3556;53.500;10.176;2023-07-28T01:56:58;16.30;99.90
7030;DHT22;3556;53.500;10.176;2023-07-28T01:59:24;16.30;99.90
7030;DHT22;3556;53.500;10.176;2023-07-28T02:01:49;16.20;99.90
7030;DHT22;3556;53.500;10.176;2023-07-28T02:04:15;16.20;99.90
7030;DHT22;3556;53.500;10.176;2023-07-28T02:06:41;16.20;99.90
7030;DHT22;3556;53.500;10.176;2023-07-28T02:09:07;16.20;99.90
7030;DHT22;3556;53.500;10.176;2023-07-28T02:11:33;16.20;99.90
7030;DHT22;3556;53.500;10.176;2023-07-28T02:13:58;16.20;99.90
7030;DHT22;3556;53.500;10.176;2023-07-28T02:16:24;16.20;99.90
7030;DHT22;3556;53.500;10.176;2023-07-28T02:18:53;16.20;99.90
7030;DHT22;3556;53.500;10.176;2023-07-28T02:21:19;16.20;99.90
7030;DHT22;3556;53.500;10.176;2023-07-28T02:23:44;16.20;99.90
7030;DHT22;3556;53.500;10.176;2023-07-28T02:26:10;16.20;99.90
7030;DHT22;3556;53.500;10.176;2023-07-28T02:28:35;16.20;99.90
7030;DHT22;3556;53.500;10.176;2023-07-28T02:31:01;16.20;99.90
7030;DHT22;3556;53.500;10.176;2023-07-28T02:33:27;16.20;99.90
7030;DHT22;3556;53.500;10.176;2023-07-28T02:35:55;16.20;99.90
7030;DHT22;3556;53.500;10.176;2023-07-28T02:38:21;16.20;99.90
7030;DHT22;3556;53.500;10.176;2023-07-28T02:40:46;16.20;99.90
7030;DHT22;3556;53.500;10.176;2023-07-28T02:43:12;16.30;99.90
7030;DHT22;3556;53.500;10.176;2023-07-28T02:45:38;16.30;99.90
7030;DHT22;3556;53.500;10.176;2023-07-28T02:48:03;16.30;99.90
7030;DHT22;3556;53.500;10.176;2023-07-28T02:50:29;16.30;99.90
7030;DHT22;3556;53.500;10.176;2023-07-28T02:52:55;16.30;99.90
7030;DHT22;3556;53.500;10.176;2023-07-28T02:55:20;16.30;99.90
7030;DHT22;3556;53.500;10.176;2023-07-28T02:57:46;16.30;99.90
7030;DHT22;3556;53.500;10.176;2023-07-28T03:00:12;16.30;99.90
7030;DHT22;3556;53.500;10.176;2023-07-28T03:02:37;16.30;99.90
7030;DHT22;3556;53.500;10.176;2023-07-28T03:05:03;16.30;99.90
7030;DHT22;3556;53.500;10.176;2023-07-28T03:07:29;16.30;99.90
7030;DHT22;3556;53.500;10.176;2023-07-28T03:09:55;16.30;99.90
7030;DHT22;3556;53.500;10.176;2023-07-28T03:12:21;16.30;99.90
7030;DHT22;3556;53.500;10.176;2023-07-28T03:14:47;16.30;99.90
7030;DHT22;3556;53.500;10.176;2023-07-28T03:17:12;16.30;99.90
7030;DHT22;3556;53.500;10.176;2023-07-28T03:19:38;16.30;99.90
7030;DHT22;3556;53.500;10.176;2023-07-28T03:22:03;16.30;99.90
7030;DHT22;3556;53.500;10.176;2023-07-28T03:24:29;16.30;99.90
7030;DHT22;3556;53.500;10.176;2023-07-28T03:26:55;16.20;99.90
7030;DHT22;3556;53.500;10.176;2023-07-28T03:29:21;16.20;99.90
7030;DHT22;3556;53.500;10.176;2023-07-28T03:31:47;16.20;99.90
7030;DHT22;3556;53.500;10.176;2023-07-28T03:34:12;16.20;99.90
7030;DHT22;3556;53.500;10.176;2023-07-28T03:36:38;16.20;99.90
7030;DHT22;3556;53.500;10.176;2023-07-28T03:39:03;16.10;99.90
7030;DHT22;3556;53.500;10.176;2023-07-28T03:41:29;16.20;99.90
7030;DHT22;3556;53.500;10.176;2023-07-28T03:43:55;16.10;99.90
7030;DHT22;3556;53.500;10.176;2023-07-28T03:46:20;16.10;99.90
7030;DHT22;3556;53.500;10.176;2023-07-28T03:48:46;16.10;99.90
7030;DHT22;3556;53.500;10.176;2023-07-28T03:51:12;16.10;99.90
7030;DHT22;3556;53.500;10.176;2023-07-28T03:53:37;16.10;99.90
7030;DHT22;3556;53.500;10.176;2023-07-28T03:56:03;16.10;99.90
7030;DHT22;3556;53.500;10.176;2023-07-28T03:58:28;16.00;99.90
7030;DHT22;3556;53.500;10.176;2023-07-28T04:00:54;16.00;99.90
7030;DHT22;3556;53.500;10.176;2023-07-28T04:03:21;16.00;99.90
7030;DHT22;3556;53.500;10.176;2023-07-28T04:05:46;16.00;99.90
7030;DHT22;3556;53.500;10.176;2023-07-28T04:08:12;16.00;99.90
7030;DHT22;3556;53.500;10.176;2023-07-28T04:10:37;16.00;99.90
7030;DHT22;3556;53.500;10.176;2023-07-28T04:13:03;16.00;99.90
7030;DHT22;3556;53.500;10.176;2023-07-28T04:15:29;16.00;99.90
7030;DHT22;3556;53.500;10.176;2023-07-28T04:17:54;16.00;99.90
7030;DHT22;3556;53.500;10.176;2023-07-28T04:20:20;16.00;99.90
7030;DHT22;3556;53.500;10.176;2023-07-28T04:22:46;16.00;99.90
7030;DHT22;3556;53.500;10.176;2023-07-28T04:25:12;16.00;99.90
7030;DHT22;3556;53.500;10.176;2023-07-28T04:27:38;16.10;99.90
7030;DHT22;3556;53.500;10.176;2023-07-28T04:30:04;16.10;99.90
7030;DHT22;3556;53.500;10.176;2023-07-28T04:32:29;16.10;99.90
7030;DHT22;3556;53.500;10.176;2023-07-28T04:34:56;16.10;99.90
7030;DHT22;3556;53.500;10.176;2023-07-28T04:37:21;16.10;99.90
7030;DHT22;3556;53.500;10.176;2023-07-28T04:39:47;16.10;99.90
7030;DHT22;3556;53.500;10.176;2023-07-28T04:42:12;16.10;99.90
7030;DHT22;3556;53.500;10.176;2023-07-28T04:44:38;16.10;99.90
7030;DHT22;3556;53.500;10.176;2023-07-28T04:47:06;16.20;99.90
7030;DHT22;3556;53.500;10.176;2023-07-28T04:49:31;16.20;99.90
7030;DHT22;3556;53.500;10.176;2023-07-28T04:51:57;16.20;99.90
7030;DHT22;3556;53.500;10.176;2023-07-28T04:54:22;16.20;99.90
7030;DHT22;3556;53.500;10.176;2023-07-28T04:56:48;16.10;99.90
7030;DHT22;3556;53.500;10.176;2023-07-28T04:59:16;16.20;99.90
7030;DHT22;3556;53.500;10.176;2023-07-28T05:01:42;16.20;99.90
7030;DHT22;3556;53.500;10.176;2023-07-28T05:04:07;16.20;99.90
7030;DHT22;3556;53.500;10.176;2023-07-28T05:06:33;16.20;99.90
7030;DHT22;3556;53.500;10.176;2023-07-28T05:08:58;16.30;99.90
7030;DHT22;3556;53.500;10.176;2023-07-28T05:11:24;16.30;99.90
7030;DHT22;3556;53.500;10.176;2023-07-28T05:13:49;16.30;99.90
7030;DHT22;3556;53.500;10.176;2023-07-28T05:16:15;16.40;99.90
7030;DHT22;3556;53.500;10.176;2023-07-28T05:18:41;16.40;99.90
7030;DHT22;3556;53.500;10.176;2023-07-28T05:21:08;16.40;99.90
7030;DHT22;3556;53.500;10.176;2023-07-28T05:23:34;16.40;99.90
7030;DHT22;3556;53.500;10.176;2023-07-28T05:25:59;16.50;99.90
7030;DHT22;3556;53.500;10.176;2023-07-28T05:28:25;16.50;99.90
7030;DHT22;3556;53.500;10.176;2023-07-28T05:30:50;16.50;99.90
7030;DHT22;3556;53.500;10.176;2023-07-28T05:33:16;16.50;99.90
7030;DHT22;3556;53.500;10.176;2023-07-28T05:35:41;16.60;99.90
7030;DHT22;3556;53.500;10.176;2023-07-28T05:38:07;16.60;99.90
7030;DHT22;3556;53.500;10.176;2023-07-28T05:40:33;16.60;99.90
7030;DHT22;3556;53.500;10.176;2023-07-28T05:42:58;16.70;99.90
7030;DHT22;3556;53.500;10.176;2023-07-28T05:45:24;16.70;99.90
7030;DHT22;3556;53.500;10.176;2023-07-28T05:47:49;16.70;99.90
7030;DHT22;3556;53.500;10.176;2023-07-28T05:50:15;16.80;99.90
7030;DHT22;3556;53.500;10.176;2023-07-28T05:52:41;16.90;99.90
7030;DHT22;3556;53.500;10.176;2023-07-28T05:55:06;16.90;99.90
7030;DHT22;3556;53.500;10.176;2023-07-28T05:57:32;17.00;99.90
7030;DHT22;3556;53.500;10.176;2023-07-28T05:59:58;17.00;99.90
7030;DHT22;3556;53.500;10.176;2023-07-28T06:02:23;17.00;99.90
7030;DHT22;3556;53.500;10.176;2023-07-28T06:04:49;17.00;99.90
7030;DHT22;3556;53.500;10.176;2023-07-28T06:07:14;17.00;99.90
7030;DHT22;3556;53.500;10.176;2023-07-28T06:09:40;17.00;99.90
7030;DHT22;3556;53.500;10.176;2023-07-28T06:12:06;17.10;99.90
7030;DHT22;3556;53.500;10.176;2023-07-28T06:14:32;17.10;99.90
7030;DHT22;3556;53.500;10.176;2023-07-28T06:16:57;17.20;99.90
7030;DHT22;3556;53.500;10.176;2023-07-28T06:19:23;17.20;99.90
7030;DHT22;3556;53.500;10.176;2023-07-28T06:21:51;17.30;99.90
7030;DHT22;3556;53.500;10.176;2023-07-28T06:24:17;17.30;99.90
7030;DHT22;3556;53.500;10.176;2023-07-28T06:26:43;17.40;99.90
7030;DHT22;3556;53.500;10.176;2023-07-28T06:29:08;17.40;99.90
7030;DHT22;3556;53.500;10.176;2023-07-28T06:31:34;17.40;99.90
7030;DHT22;3556;53.500;10.176;2023-07-28T06:33:59;17.30;99.90
7030;DHT22;3556;53.500;10.176;2023-07-28T06:36:25;17.40;99.90
7030;DHT22;3556;53.500;10.176;2023-07-28T06:38:51;17.40;99.90
7030;DHT22;3556;53.500;10.176;2023-07-28T06:41:18;17.50;99.90
7030;DHT22;3556;53.500;10.176;2023-07-28T06:43:43;17.50;99.90
7030;DHT22;3556;53.500;10.176;2023-07-28T06:46:09;17.60;99.90
7030;DHT22;3556;53.500;10.176;2023-07-28T06:48:35;17.60;99.90
7030;DHT22;3556;53.500;10.176;2023-07-28T06:51:00;17.60;99.90
7030;DHT22;3556;53.500;10.176;2023-07-28T06:53:26;17.70;99.90
7030;DHT22;3556;53.500;10.176;2023-07-28T06:55:52;17.70;99.90
7030;DHT22;3556;53.500;10.176;2023-07-28T06:58:17;17.60;99.90
7030;DHT22;3556;53.500;10.176;2023-07-28T07:00:43;17.70;99.90
7030;DHT22;3556;53.500;10.176;2023-07-28T07:03:10;17.60;99.90
7030;DHT22;3556;53.500;10.176;2023-07-28T07:05:36;17.60;99.90
7030;DHT22;3556;53.500;10.176;2023-07-28T07:08:01;17.70;99.90
7030;DHT22;3556;53.500;10.176;2023-07-28T07:10:27;17.70;99.90
7030;DHT22;3556;53.500;10.176;2023-07-28T07:12:53;17.70;99.90
7030;DHT22;3556;53.500;10.176;2023-07-28T07:15:18;17.70;99.90
7030;DHT22;3556;53.500;10.176;2023-07-28T07:17:44;17.70;99.90
7030;DHT22;3556;53.500;10.176;2023-07-28T07:20:10;17.80;99.90
7030;DHT22;3556;53.500;10.176;2023-07-28T07:22:36;17.80;99.90
7030;DHT22;3556;53.500;10.176;2023-07-28T07:25:03;17.90;99.90
7030;DHT22;3556;53.500;10.176;2023-07-28T07:27:29;18.00;99.90
7030;DHT22;3556;53.500;10.176;2023-07-28T07:29:55;18.00;99.90
7030;DHT22;3556;53.500;10.176;2023-07-28T07:32:20;18.10;99.90
7030;DHT22;3556;53.500;10.176;2023-07-28T07:34:46;18.10;99.90
7030;DHT22;3556;53.500;10.176;2023-07-28T07:37:12;18.20;99.90
7030;DHT22;3556;53.500;10.176;2023-07-28T07:39:38;18.20;99.90
7030;DHT22;3556;53.500;10.176;2023-07-28T07:42:06;18.20;99.90
7030;DHT22;3556;53.500;10.176;2023-07-28T07:44:32;18.20;99.90
7030;DHT22;3556;53.500;10.176;2023-07-28T07:47:00;18.20;99.90
7030;DHT22;3556;53.500;10.176;2023-07-28T07:49:26;18.20;99.90
7030;DHT22;3556;53.500;10.176;2023-07-28T07:51:52;18.20;99.90
7030;DHT22;3556;53.500;10.176;2023-07-28T07:54:18;18.20;99.90
7030;DHT22;3556;53.500;10.176;2023-07-28T07:56:44;18.20;99.90
7030;DHT22;3556;53.500;10.176;2023-07-28T07:59:10;18.20;99.90
7030;DHT22;3556;53.500;10.176;2023-07-28T08:01:35;18.20;99.90
7030;DHT22;3556;53.500;10.176;2023-07-28T08:04:01;18.20;99.90
7030;DHT22;3556;53.500;10.176;2023-07-28T08:06:27;18.20;99.90
7030;DHT22;3556;53.500;10.176;2023-07-28T08:08:52;18.20;99.90
7030;DHT22;3556;53.500;10.176;2023-07-28T08:11:19;18.30;99.90
7030;DHT22;3556;53.500;10.176;2023-07-28T08:13:44;18.40;99.90
7030;DHT22;3556;53.500;10.176;2023-07-28T08:16:10;18.40;99.90
7030;DHT22;3556;53.500;10.176;2023-07-28T08:18:36;18.50;99.90
7030;DHT22;3556;53.500;10.176;2023-07-28T08:21:02;18.70;99.90
7030;DHT22;3556;53.500;10.176;2023-07-28T08:23:27;18.80;99.90
7030;DHT22;3556;53.500;10.176;2023-07-28T08:25:53;18.90;99.90
7030;DHT22;3556;53.500;10.176;2023-07-28T08:28:19;19.00;99.90
7030;DHT22;3556;53.500;10.176;2023-07-28T08:30:44;19.10;99.90
7030;DHT22;3556;53.500;10.176;2023-07-28T08:33:10;19.10;99.90
7030;DHT22;3556;53.500;10.176;2023-07-28T08:35:35;19.20;99.90
7030;DHT22;3556;53.500;10.176;2023-07-28T08:38:01;19.20;99.90
7030;DHT22;3556;53.500;10.176;2023-07-28T08:40:28;19.20;99.90
7030;DHT22;3556;53.500;10.176;2023-07-28T08:42:53;19.20;99.90
7030;DHT22;3556;53.500;10.176;2023-07-28T08:45:19;19.20;99.90
7030;DHT22;3556;53.500;10.176;2023-07-28T08:47:45;19.20;99.90
7030;DHT22;3556;53.500;10.176;2023-07-28T08:50:11;19.20;99.90
7030;DHT22;3556;53.500;10.176;2023-07-28T08:52:36;19.20;99.90
7030;DHT22;3556;53.500;10.176;2023-07-28T08:55:02;19.10;99.90
7030;DHT22;3556;53.500;10.176;2023-07-28T08:57:28;19.10;99.90
7030;DHT22;3556;53.500;10.176;2023-07-28T08:59:54;19.10;99.90
7030;DHT22;3556;53.500;10.176;2023-07-28T09:02:20;19.10;99.90
7030;DHT22;3556;53.500;10.176;2023-07-28T09:04:48;19.10;99.90
7030;DHT22;3556;53.500;10.176;2023-07-28T09:07:14;19.20;99.90
7030;DHT22;3556;53.500;10.176;2023-07-28T09:09:40;19.20;99.90
7030;DHT22;3556;53.500;10.176;2023-07-28T09:12:06;19.30;99.90
7030;DHT22;3556;53.500;10.176;2023-07-28T09:14:35;19.30;99.90
7030;DHT22;3556;53.500;10.176;2023-07-28T09:17:09;19.40;99.90
7030;DHT22;3556;53.500;10.176;2023-07-28T09:19:49;19.50;99.90
7030;DHT22;3556;53.500;10.176;2023-07-28T09:22:16;19.60;99.90
7030;DHT22;3556;53.500;10.176;2023-07-28T09:24:41;19.60;99.90
7030;DHT22;3556;53.500;10.176;2023-07-28T09:27:25;19.50;99.90
7030;DHT22;3556;53.500;10.176;2023-07-28T09:29:53;19.50;99.90
7030;DHT22;3556;53.500;10.176;2023-07-28T09:32:28;19.50;99.90
7030;DHT22;3556;53.500;10.176;2023-07-28T09:35:10;19.50;99.90
7030;DHT22;3556;53.500;10.176;2023-07-28T09:37:43;19.60;99.90
7030;DHT22;3556;53.500;10.176;2023-07-28T09:40:16;19.60;99.90
7030;DHT22;3556;53.500;10.176;2023-07-28T09:42:44;19.70;99.90
7030;DHT22;3556;53.500;10.176;2023-07-28T09:45:15;19.80;99.90
7030;DHT22;3556;53.500;10.176;2023-07-28T09:47:43;19.90;99.90
7030;DHT22;3556;53.500;10.176;2023-07-28T09:50:10;20.00;99.90
7030;DHT22;3556;53.500;10.176;2023-07-28T09:52:39;20.10;99.90
7030;DHT22;3556;53.500;10.176;2023-07-28T09:55:09;20.10;99.90
7030;DHT22;3556;53.500;10.176;2023-07-28T09:57:45;20.10;99.90
7030;DHT22;3556;53.500;10.176;2023-07-28T10:00:13;20.10;99.90
7030;DHT22;3556;53.500;10.176;2023-07-28T10:02:39;20.00;99.90
7030;DHT22;3556;53.500;10.176;2023-07-28T10:05:06;20.00;99.90
7030;DHT22;3556;53.500;10.176;2023-07-28T10:07:34;20.00;99.90
7030;DHT22;3556;53.500;10.176;2023-07-28T10:10:03;20.00;99.90
7030;DHT22;3556;53.500;10.176;2023-07-28T10:12:47;20.10;99.90
7030;DHT22;3556;53.500;10.176;2023-07-28T10:15:15;20.10;99.90
7030;DHT22;3556;53.500;10.176;2023-07-28T10:17:44;20.10;99.90
7030;DHT22;3556;53.500;10.176;2023-07-28T10:23:02;20.10;99.90
7030;DHT22;3556;53.500;10.176;2023-07-28T10:25:32;20.10;99.90
7030;DHT22;3556;53.500;10.176;2023-07-28T10:27:58;20.00;99.90
7030;DHT22;3556;53.500;10.176;2023-07-28T10:30:24;20.00;99.90
7030;DHT22;3556;53.500;10.176;2023-07-28T10:32:50;20.00;99.90
7030;DHT22;3556;53.500;10.176;2023-07-28T10:37:47;19.90;99.90
7030;DHT22;3556;53.500;10.176;2023-07-28T10:42:48;20.00;99.90
7030;DHT22;3556;53.500;10.176;2023-07-28T10:45:14;20.00;99.90
7030;DHT22;3556;53.500;10.176;2023-07-28T10:47:41;20.00;99.90
7030;DHT22;3556;53.500;10.176;2023-07-28T10:50:10;20.00;99.90
7030;DHT22;3556;53.500;10.176;2023-07-28T10:52:39;20.10;99.90
7030;DHT22;3556;53.500;10.176;2023-07-28T10:55:21;20.20;99.90
7030;DHT22;3556;53.500;10.176;2023-07-28T10:57:48;20.40;99.90
7030;DHT22;3556;53.500;10.176;2023-07-28T11:00:19;20.50;99.90
7030;DHT22;3556;53.500;10.176;2023-07-28T11:02:50;20.60;99.90
7030;DHT22;3556;53.500;10.176;2023-07-28T11:05:23;20.70;99.90
7030;DHT22;3556;53.500;10.176;2023-07-28T11:07:51;20.70;99.90
7030;DHT22;3556;53.500;10.176;2023-07-28T11:10:16;20.80;99.90
7030;DHT22;3556;53.500;10.176;2023-07-28T11:12:43;20.90;99.90
7030;DHT22;3556;53.500;10.176;2023-07-28T11:15:11;21.00;99.90
7030;DHT22;3556;53.500;10.176;2023-07-28T11:17:40;21.20;99.90
7030;DHT22;3556;53.500;10.176;2023-07-28T11:20:27;21.30;99.90
7030;DHT22;3556;53.500;10.176;2023-07-28T11:22:56;21.60;99.90
7030;DHT22;3556;53.500;10.176;2023-07-28T11:25:27;21.80;99.90
7030;DHT22;3556;53.500;10.176;2023-07-28T11:27:53;22.10;99.90
7030;DHT22;3556;53.500;10.176;2023-07-28T11:30:20;22.30;99.90
7030;DHT22;3556;53.500;10.176;2023-07-28T11:32:49;22.60;99.90
7030;DHT22;3556;53.500;10.176;2023-07-28T11:35:17;22.70;99.90
7030;DHT22;3556;53.500;10.176;2023-07-28T11:37:45;22.80;99.90
7030;DHT22;3556;53.500;10.176;2023-07-28T11:40:11;22.80;99.90
7030;DHT22;3556;53.500;10.176;2023-07-28T11:42:39;22.80;99.90
7030;DHT22;3556;53.500;10.176;2023-07-28T11:45:06;22.70;99.90
7030;DHT22;3556;53.500;10.176;2023-07-28T11:47:32;22.70;99.90
7030;DHT22;3556;53.500;10.176;2023-07-28T11:49:58;22.70;99.90
7030;DHT22;3556;53.500;10.176;2023-07-28T11:52:28;22.80;99.90
7030;DHT22;3556;53.500;10.176;2023-07-28T11:54:54;22.90;99.90
7030;DHT22;3556;53.500;10.176;2023-07-28T11:57:21;22.80;99.90
7030;DHT22;3556;53.500;10.176;2023-07-28T11:59:46;22.80;99.90
7030;DHT22;3556;53.500;10.176;2023-07-28T12:02:13;22.70;99.90
7030;DHT22;3556;53.500;10.176;2023-07-28T12:04:39;22.70;99.90
7030;DHT22;3556;53.500;10.176;2023-07-28T12:07:16;22.70;99.90
7030;DHT22;3556;53.500;10.176;2023-07-28T12:12:21;22.90;99.90
7030;DHT22;3556;53.500;10.176;2023-07-28T12:14:47;22.90;99.90
7030;DHT22;3556;53.500;10.176;2023-07-28T12:19:43;22.90;99.90
7030;DHT22;3556;53.500;10.176;2023-07-28T12:22:19;23.00;99.90
7030;DHT22;3556;53.500;10.176;2023-07-28T12:24:45;23.00;99.90
7030;DHT22;3556;53.500;10.176;2023-07-28T12:27:11;23.10;99.90
7030;DHT22;3556;53.500;10.176;2023-07-28T12:29:38;23.10;99.90
7030;DHT22;3556;53.500;10.176;2023-07-28T12:32:04;23.00;99.90
7030;DHT22;3556;53.500;10.176;2023-07-28T12:34:30;22.80;99.90
7030;DHT22;3556;53.500;10.176;2023-07-28T12:36:56;22.70;99.90
7030;DHT22;3556;53.500;10.176;2023-07-28T12:39:22;22.70;99.90
7030;DHT22;3556;53.500;10.176;2023-07-28T12:41:48;22.60;99.90
7030;DHT22;3556;53.500;10.176;2023-07-28T12:44:14;22.60;99.90
7030;DHT22;3556;53.500;10.176;2023-07-28T12:46:40;22.60;99.90
7030;DHT22;3556;53.500;10.176;2023-07-28T12:49:05;22.60;99.90
7030;DHT22;3556;53.500;10.176;2023-07-28T12:51:32;22.50;99.90
7030;DHT22;3556;53.500;10.176;2023-07-28T12:53:58;22.40;99.90
7030;DHT22;3556;53.500;10.176;2023-07-28T12:56:23;22.40;99.90
7030;DHT22;3556;53.500;10.176;2023-07-28T12:58:49;22.40;99.90
7030;DHT22;3556;53.500;10.176;2023-07-28T13:01:15;22.40;99.90
7030;DHT22;3556;53.500;10.176;2023-07-28T13:03:40;22.50;99.90
7030;DHT22;3556;53.500;10.176;2023-07-28T13:06:06;22.40;99.90
7030;DHT22;3556;53.500;10.176;2023-07-28T13:08:31;22.40;99.90
7030;DHT22;3556;53.500;10.176;2023-07-28T13:10:57;22.40;99.90
7030;DHT22;3556;53.500;10.176;2023-07-28T13:13:23;22.50;99.90
7030;DHT22;3556;53.500;10.176;2023-07-28T13:15:48;22.60;99.90
7030;DHT22;3556;53.500;10.176;2023-07-28T13:18:14;22.60;99.90
7030;DHT22;3556;53.500;10.176;2023-07-28T13:20:40;22.60;99.90
7030;DHT22;3556;53.500;10.176;2023-07-28T13:23:05;22.50;99.90
7030;DHT22;3556;53.500;10.176;2023-07-28T13:25:31;22.40;99.90
7030;DHT22;3556;53.500;10.176;2023-07-28T13:27:56;22.30;99.90
7030;DHT22;3556;53.500;10.176;2023-07-28T13:30:22;22.30;99.90
7030;DHT22;3556;53.500;10.176;2023-07-28T13:32:48;22.20;99.90
7030;DHT22;3556;53.500;10.176;2023-07-28T13:35:13;22.20;99.90
7030;DHT22;3556;53.500;10.176;2023-07-28T13:37:40;22.30;99.90
7030;DHT22;3556;53.500;10.176;2023-07-28T13:40:06;22.20;99.90
7030;DHT22;3556;53.500;10.176;2023-07-28T13:42:32;22.20;99.90
7030;DHT22;3556;53.500;10.176;2023-07-28T13:44:57;22.10;99.90
7030;DHT22;3556;53.500;10.176;2023-07-28T13:47:23;22.10;99.90
7030;DHT22;3556;53.500;10.176;2023-07-28T13:49:48;22.10;99.90
7030;DHT22;3556;53.500;10.176;2023-07-28T13:52:14;22.00;99.90
7030;DHT22;3556;53.500;10.176;2023-07-28T13:54:39;21.90;99.90
7030;DHT22;3556;53.500;10.176;2023-07-28T13:57:07;21.80;99.90
7030;DHT22;3556;53.500;10.176;2023-07-28T13:59:33;21.90;99.90
7030;DHT22;3556;53.500;10.176;2023-07-28T14:01:58;22.00;99.90
7030;DHT22;3556;53.500;10.176;2023-07-28T14:04:24;22.20;99.90
7030;DHT22;3556;53.500;10.176;2023-07-28T14:06:49;22.50;99.90
7030;DHT22;3556;53.500;10.176;2023-07-28T14:09:15;23.00;99.90
7030;DHT22;3556;53.500;10.176;2023-07-28T14:11:41;23.20;99.90
7030;DHT22;3556;53.500;10.176;2023-07-28T14:14:06;23.30;99.90
7030;DHT22;3556;53.500;10.176;2023-07-28T14:16:32;23.20;99.90
7030;DHT22;3556;53.500;10.176;2023-07-28T14:18:57;23.30;99.90
7030;DHT22;3556;53.500;10.176;2023-07-28T14:21:23;23.30;99.90
7030;DHT22;3556;53.500;10.176;2023-07-28T14:23:49;23.30;99.90
7030;DHT22;3556;53.500;10.176;2023-07-28T14:26:14;23.30;99.90
7030;DHT22;3556;53.500;10.176;2023-07-28T14:28:40;23.30;99.90
7030;DHT22;3556;53.500;10.176;2023-07-28T14:31:06;23.30;99.90
7030;DHT22;3556;53.500;10.176;2023-07-28T14:33:31;23.30;99.90
7030;DHT22;3556;53.500;10.176;2023-07-28T14:35:57;23.30;99.90
7030;DHT22;3556;53.500;10.176;2023-07-28T14:38:23;23.30;99.90
7030;DHT22;3556;53.500;10.176;2023-07-28T14:40:48;23.20;99.90
7030;DHT22;3556;53.500;10.176;2023-07-28T14:43:17;23.30;99.90
7030;DHT22;3556;53.500;10.176;2023-07-28T14:45:43;23.40;99.90
7030;DHT22;3556;53.500;10.176;2023-07-28T14:48:09;23.50;99.90
7030;DHT22;3556;53.500;10.176;2023-07-28T14:50:34;23.60;99.90
7030;DHT22;3556;53.500;10.176;2023-07-28T14:53:00;23.80;99.90
7030;DHT22;3556;53.500;10.176;2023-07-28T14:55:26;24.00;99.90
7030;DHT22;3556;53.500;10.176;2023-07-28T14:57:52;24.20;99.90
7030;DHT22;3556;53.500;10.176;2023-07-28T15:00:18;24.40;99.90
7030;DHT22;3556;53.500;10.176;2023-07-28T15:02:43;24.60;99.90
7030;DHT22;3556;53.500;10.176;2023-07-28T15:05:09;24.80;99.90
7030;DHT22;3556;53.500;10.176;2023-07-28T15:07:35;25.00;99.90
7030;DHT22;3556;53.500;10.176;2023-07-28T15:10:02;25.20;99.90
7030;DHT22;3556;53.500;10.176;2023-07-28T15:12:28;25.40;99.90
7030;DHT22;3556;53.500;10.176;2023-07-28T15:14:54;25.40;99.90
7030;DHT22;3556;53.500;10.176;2023-07-28T15:17:20;25.50;99.90
7030;DHT22;3556;53.500;10.176;2023-07-28T15:19:46;25.50;99.90
7030;DHT22;3556;53.500;10.176;2023-07-28T15:22:11;25.30;99.90
7030;DHT22;3556;53.500;10.176;2023-07-28T15:24:37;25.20;99.90
7030;DHT22;3556;53.500;10.176;2023-07-28T15:27:03;25.20;99.90
7030;DHT22;3556;53.500;10.176;2023-07-28T15:29:29;25.10;99.90
7030;DHT22;3556;53.500;10.176;2023-07-28T15:31:54;25.10;99.90
7030;DHT22;3556;53.500;10.176;2023-07-28T15:34:20;25.10;99.90
7030;DHT22;3556;53.500;10.176;2023-07-28T15:36:47;25.10;99.90
7030;DHT22;3556;53.500;10.176;2023-07-28T15:39:13;25.10;99.90
7030;DHT22;3556;53.500;10.176;2023-07-28T15:41:38;25.10;99.90
7030;DHT22;3556;53.500;10.176;2023-07-28T15:44:04;25.20;99.90
7030;DHT22;3556;53.500;10.176;2023-07-28T15:46:30;25.20;99.90
7030;DHT22;3556;53.500;10.176;2023-07-28T15:48:56;25.20;99.90
7030;DHT22;3556;53.500;10.176;2023-07-28T15:51:21;25.10;99.90
7030;DHT22;3556;53.500;10.176;2023-07-28T15:53:47;25.10;99.90
7030;DHT22;3556;53.500;10.176;2023-07-28T15:56:12;25.10;99.90
7030;DHT22;3556;53.500;10.176;2023-07-28T15:58:38;25.00;99.90
7030;DHT22;3556;53.500;10.176;2023-07-28T16:01:04;25.00;99.90